Weather reports worldwide

Advertisment
Apt, France (7657): temperature & dewpoint: 20.09.2020 13:00:00 - 26.09.2020 13:00:00 (CEST)Apt, France (7657): wind speed & gusts: 20.09.2020 13:00:00 - 26.09.2020 13:00:00 (CEST)Apt, France (7657): wind direction: 20.09.2020 13:00:00 - 26.09.2020 13:00:00 (CEST)Apt, France (7657): precipitation: 20.09.2020 13:00:00 - 26.09.2020 13:00:00 (CEST)
Date & Time tt [°C] td [°C] ff [km/h] ff [kn] fx [km/h] fx [kn] dd rr [mm]
26.09.2020 13:00:00 - - - - - - - -
26.09.2020 12:00:00 9,6 1,5 36 19 61 33 NW 0,0
26.09.2020 11:00:00 8,8 0,7 36 19 61 33 NW 0,0
26.09.2020 10:00:00 7,5 0,7 31 17 67 36 NW 0,0
26.09.2020 09:00:00 7,2 0,8 29 16 57 31 NW 0,0
26.09.2020 08:00:00 5,8 0,1 24 13 78 42 NW 0,0
26.09.2020 07:00:00 5,2 0,8 40 21 72 39 NNW 0,0
26.09.2020 06:00:00 5,8 -0,1 42 23 71 38 NW 0,0
26.09.2020 05:00:00 6,1 0,4 26 14 60 33 WNW 0,0
26.09.2020 04:00:00 5,9 0,0 26 14 75 40 W 0,0
26.09.2020 03:00:00 5,8 0,3 37 20 82 44 NW 0,0
26.09.2020 02:00:00 5,8 0,5 44 24 85 46 NNW 0,0
26.09.2020 01:00:00 5,6 1,7 44 24 73 39 NW 0,0
26.09.2020 00:00:00 5,1 2,8 30 16 61 33 NW 0,0
25.09.2020 23:00:00 5,0 3,0 22 12 51 27 WNW 1,0
25.09.2020 22:00:00 6,4 3,5 19 10 46 25 WNW 0,0
25.09.2020 21:00:00 6,2 3,5 26 14 53 29 WNW 0,0
25.09.2020 20:00:00 7,4 4,5 22 12 40 22 NW 0,2
25.09.2020 19:00:00 7,6 4,4 23 13 53 29 NNW 0,8
25.09.2020 18:00:00 11,6 2,3 24 13 66 35 WNW 0,0
25.09.2020 17:00:00 11,1 1,9 29 16 54 29 NW 0,0
25.09.2020 16:00:00 9,6 4,4 33 18 60 33 NNW 0,0
25.09.2020 15:00:00 8,9 3,5 29 16 54 29 NW 0,0
25.09.2020 14:00:00 9,2 5,4 24 13 51 27 WNW 0,0
25.09.2020 13:00:00 10,5 3,3 23 12 52 28 NW 0,0
25.09.2020 12:00:00 9,8 2,4 33 18 56 31 NW 0,0
25.09.2020 11:00:00 10,3 5,3 28 15 46 25 NW 0,0
25.09.2020 10:00:00 9,8 6,7 16 9 33 18 WNW 0,0
25.09.2020 09:00:00 8,0 5,6 16 9 33 18 W 0,0
25.09.2020 08:00:00 7,4 4,7 12 6 34 18 WNW 0,0
25.09.2020 07:00:00 7,5 5,6 13 7 50 27 NW 0,2
25.09.2020 06:00:00 8,3 6,4 22 12 44 24 WNW 0,8
25.09.2020 05:00:00 10,1 9,0 16 9 33 18 W 2,2
25.09.2020 04:00:00 9,9 7,7 10 5 19 10 WNW 0,0
25.09.2020 03:00:00 10,5 8,3 10 6 21 11 W 0,0
25.09.2020 02:00:00 11,5 7,0 15 8 27 15 W 0,0
25.09.2020 01:00:00 11,4 9,3 8 4 26 14 WNW 0,4
25.09.2020 00:00:00 13,1 12,3 10 6 23 12 NNW 0,0
24.09.2020 23:00:00 13,4 12,6 5 3 22 12 W 4,5
24.09.2020 22:00:00 14,1 12,1 7 4 20 11 WNW 0,0
24.09.2020 21:00:00 14,9 13,9 5 3 19 11 NNW 0,0
24.09.2020 20:00:00 15,5 13,7 8 4 25 13 WNW 0,0
24.09.2020 19:00:00 - - - - - - - -
24.09.2020 18:00:00 17,6 12,7 17 9 35 19 SSW 0,0
24.09.2020 17:00:00 19,0 12,5 17 9 33 18 SSW 0,0
24.09.2020 16:00:00 20,1 12,8 19 10 35 19 SW 0,0
24.09.2020 15:00:00 19,8 13,0 15 8 32 17 SSW 0,0
24.09.2020 14:00:00 20,3 12,5 15 8 27 14 SSW 0,0
24.09.2020 13:00:00 20,0 12,0 13 7 27 15 SE 0,0
24.09.2020 12:00:00 20,5 12,7 15 8 29 16 SE 0,0
24.09.2020 11:00:00 19,4 12,6 11 6 21 11 ESE 0,0
24.09.2020 10:00:00 17,9 12,6 2 1 7 4 SSW 0,0
24.09.2020 09:00:00 14,3 14,0 3 2 6 3 SSW 0,0
24.09.2020 08:00:00 12,8 12,3 2 1 8 4 WNW 0,0
24.09.2020 07:00:00 12,4 12,1 0 0 5 3 N 0,0
24.09.2020 06:00:00 12,4 12,1 2 1 6 4 SSW 0,2
24.09.2020 05:00:00 12,0 11,7 2 1 6 4 SW 0,0
24.09.2020 04:00:00 11,8 11,3 3 2 14 7 NNE 0,0
24.09.2020 03:00:00 10,6 10,3 5 3 10 5 NNW 0,0
24.09.2020 02:00:00 10,5 10,2 3 2 6 3 WNW 0,0
24.09.2020 01:00:00 10,6 10,3 2 1 8 4 N 0,0
24.09.2020 00:00:00 11,2 10,9 3 1 9 5 WNW 0,0
23.09.2020 23:00:00 - - - - - - - -
23.09.2020 22:00:00 13,5 12,6 5 3 14 8 NNW 0,0
23.09.2020 21:00:00 13,0 12,2 6 3 19 10 WNW 0,0
23.09.2020 20:00:00 15,1 12,8 5 3 15 8 NW 0,0
23.09.2020 19:00:00 18,2 12,9 6 3 20 11 W 0,0
23.09.2020 18:00:00 19,7 12,5 11 6 26 14 W 0,0
23.09.2020 17:00:00 20,0 13,0 16 9 33 18 W 0,0
23.09.2020 16:00:00 20,5 11,9 14 7 29 16 W 0,0
23.09.2020 15:00:00 20,6 12,3 12 6 26 14 SW 0,0
23.09.2020 14:00:00 20,3 13,7 12 6 25 13 WSW 0,0
23.09.2020 13:00:00 19,0 13,2 9 5 17 9 WNW 0,0
23.09.2020 12:00:00 18,9 14,2 6 3 15 8 E 0,0
23.09.2020 11:00:00 17,7 14,0 5 3 16 8 N 0,0
23.09.2020 10:00:00 16,4 13,1 2 1 8 4 ENE 0,0
23.09.2020 09:00:00 12,1 11,9 0 0 8 4 N 0,0
23.09.2020 08:00:00 9,2 9,1 0 0 6 3 N 0,0
23.09.2020 07:00:00 9,0 8,7 0 0 5 3 N 0,0
23.09.2020 06:00:00 10,1 9,6 2 1 5 3 S 0,0
23.09.2020 05:00:00 11,4 11,1 0 0 7 4 N 0,0
23.09.2020 04:00:00 11,4 11,1 3 2 5 3 W 0,0
23.09.2020 03:00:00 12,1 11,8 3 2 5 3 NE 0,4
23.09.2020 02:00:00 12,1 11,8 2 1 7 4 NE 0,4
23.09.2020 01:00:00 12,0 11,7 3 2 9 5 W 0,0
23.09.2020 00:00:00 12,5 11,9 0 0 5 3 N 0,0
22.09.2020 23:00:00 13,0 12,5 0 0 4 2 N 0,0
22.09.2020 22:00:00 13,0 12,5 0 0 4 2 N 0,0
22.09.2020 21:00:00 13,0 12,2 0 0 4 2 N 0,0
22.09.2020 20:00:00 13,6 12,2 2 1 6 4 SSW 0,0
22.09.2020 19:00:00 - - - - - - - -
22.09.2020 18:00:00 15,0 12,1 5 3 16 9 ESE 0,0
22.09.2020 17:00:00 15,3 11,9 8 4 16 9 ESE 0,0
22.09.2020 16:00:00 14,2 12,6 9 5 17 9 SE 0,0
22.09.2020 15:00:00 13,5 12,7 9 5 19 10 ESE 0,0
22.09.2020 14:00:00 13,1 12,6 14 8 24 13 ESE 0,4
22.09.2020 13:00:00 13,3 13,0 7 4 13 7 ESE 0,8
22.09.2020 12:00:00 12,7 12,4 0 0 9 5 N 2,2
22.09.2020 11:00:00 13,2 12,9 4 2 13 7 WNW 7,0
22.09.2020 10:00:00 13,7 13,4 8 4 14 8 SSW 5,1
22.09.2020 09:00:00 14,0 13,8 9 5 13 7 NNW 0,0
22.09.2020 08:00:00 13,6 13,6 0 0 8 5 N 0,0
22.09.2020 07:00:00 13,2 13,2 3 2 6 3 SSW 0,2
22.09.2020 06:00:00 11,9 11,9 0 0 4 2 N 0,0
22.09.2020 05:00:00 11,1 10,9 0 0 4 2 N 0,0
22.09.2020 04:00:00 10,3 10,1 0 0 6 4 N 0,0
22.09.2020 03:00:00 11,1 10,9 3 2 7 4 WSW 0,0
22.09.2020 02:00:00 10,6 10,4 0 0 5 3 N 0,2
22.09.2020 01:00:00 11,4 11,1 0 0 8 4 N 0,0
22.09.2020 00:00:00 12,2 11,9 2 1 9 5 S 0,0
21.09.2020 23:00:00 12,4 11,9 6 3 9 5 SW 0,0
21.09.2020 22:00:00 13,4 12,9 4 2 10 5 WSW 0,0
21.09.2020 21:00:00 13,7 13,2 5 3 12 6 WSW 0,2
21.09.2020 20:00:00 14,5 14,0 9 5 18 10 NNW 3,0
21.09.2020 19:00:00 14,8 13,5 6 3 26 14 E 0,4
21.09.2020 18:00:00 15,1 12,2 18 10 39 21 NE 8,4
21.09.2020 17:00:00 20,5 13,2 5 3 57 31 WNW 0,0
21.09.2020 16:00:00 20,7 13,4 6 4 35 19 S 0,0
21.09.2020 15:00:00 18,0 14,1 11 6 21 11 ESE 0,0
21.09.2020 14:00:00 19,3 12,8 3 2 16 9 SE 0,0
21.09.2020 13:00:00 17,2 12,3 5 3 24 13 SE 0,0
21.09.2020 12:00:00 20,0 13,5 4 2 10 5 ESE 0,0
21.09.2020 11:00:00 18,3 14,4 3 1 9 5 N 0,0
21.09.2020 10:00:00 16,1 15,1 2 1 6 3 N 0,0
21.09.2020 09:00:00 13,4 13,1 2 1 6 4 ENE 0,0
21.09.2020 08:00:00 11,2 11,2 4 2 7 4 W 0,0
21.09.2020 07:00:00 9,0 8,9 0 0 4 2 N 0,0
21.09.2020 06:00:00 8,7 8,6 0 0 5 3 N 0,0
21.09.2020 05:00:00 8,9 8,8 0 0 5 3 N 0,0
21.09.2020 04:00:00 9,1 9,0 0 0 6 4 N 0,0
21.09.2020 03:00:00 10,1 9,9 0 0 5 3 N 0,0
21.09.2020 02:00:00 10,6 10,4 3 1 9 5 NNW 0,0
21.09.2020 01:00:00 10,9 10,6 2 1 8 5 WNW 0,0
21.09.2020 00:00:00 11,8 11,3 4 2 11 6 SW 0,2
20.09.2020 23:00:00 12,8 12,3 8 5 11 6 W 0,0
20.09.2020 22:00:00 14,1 13,5 0 0 8 4 N 0,4
20.09.2020 21:00:00 15,0 14,5 5 3 13 7 SE 1,4
20.09.2020 20:00:00 15,3 14,3 6 3 15 8 W 2,6
20.09.2020 19:00:00 16,9 15,6 5 3 16 9 NW 0,2
20.09.2020 18:00:00 17,3 15,1 11 6 21 12 NW 0,2
20.09.2020 17:00:00 18,5 14,8 9 5 28 15 SE 0,0
20.09.2020 16:00:00 - - - - - - - -
20.09.2020 15:00:00 19,5 16,0 11 6 24 13 E 0,0
20.09.2020 14:00:00 16,4 15,9 3 2 16 9 NW 0,0
20.09.2020 13:00:00 14,5 14,2 5 3 29 16 W 1,0

tt = temperature
td = dewpoint
ff = wind speed
fx = gusts
dd = wind direction
rr = precipitation

Next stations